Home   Weather   France   Ajaccio   Past weeks
Flag for France

Past Weather in Ajaccio, Corse, France — Yesterday and Last 2 Weeks

Currently: 46 °F. Clear. (Weather station: Ajaccio Airport, France). See more current weather

Past Weather in Ajaccio — Graph

°F

Ajaccio Temperature Yesterday

Maximum temperature yesterday: 66 °F (at 1:00 pm)
Minimum temperature yesterday: 43 °F (at 5:00 am)
Average temperature yesterday: 54 °F

High & Low Weather Summary for the Past Weeks

 TemperatureHumidityPressure
High81 °F (Apr 15, 2:00 pm)100% (Apr 11, 1:30 am)30.39 "Hg (Apr 11, 1:30 am)
Low43 °F (Apr 11, 4:00 am)21% (Apr 19, 4:00 pm)29.68 "Hg (Apr 17, 2:00 am)
Average58 °F72%30.07 "Hg
* Reported Apr 4 11:00 pm — Apr 19 11:00 pm, Ajaccio. Weather by CustomWeather, © 2024

Note: Actual official high and low records may vary slightly from our data, if they occured in-between our weather recording intervals... More about our weather records

Ajaccio Weather History for the Previous 24 Hours

Scroll right to see more
 ConditionsComfort  
Time TempWeatherWind HumidityBarometerVisibility
11:00 pm
Fri, Apr 19
46 °FClear.7 mph66%30.01 "Hg10 mi
10:30 pm48 °FClear.5 mph62%30.01 "Hg10 mi
10:00 pm50 °FClear.7 mph58%30.01 "Hg10 mi
9:00 pm54 °FClear.5 mph58%30.01 "Hg10 mi
8:30 pm55 °FClear.2 mph55%30.01 "Hg10 mi
8:00 pm57 °FSunny.6 mph51%30.01 "Hg10 mi
7:30 pm61 °FPassing clouds.8 mph39%30.01 "HgN/A
7:00 pm61 °FSunny.12 mph42%30.01 "Hg10 mi
6:30 pm63 °FSunny.14 mph49%30.01 "Hg10 mi
6:00 pm64 °FSunny.15 mph52%30.01 "Hg10 mi
5:30 pm66 °FPassing clouds.9 mph26%30.01 "HgN/A
5:00 pm64 °FPassing clouds.10 mph24%30.01 "HgN/A
4:00 pm66 °FPassing clouds.14 mph21%30.01 "HgN/A
3:00 pm64 °FPassing clouds.10 mph37%30.04 "HgN/A
2:30 pm64 °FSunny.15 mph40%30.04 "Hg10 mi
2:00 pm66 °FSunny.16 mph37%30.04 "Hg10 mi
1:30 pm66 °FPassing clouds.8 mph32%30.04 "HgN/A
1:00 pm66 °FSunny.10 mph40%30.04 "Hg10 mi
12:30 pm64 °FPassing clouds.10 mph43%30.04 "HgN/A
12:00 pm63 °FSunny.9 mph49%30.07 "Hg10 mi
11:30 am63 °FSunny.6 mph49%30.07 "Hg10 mi
11:00 am61 °FPassing clouds.5 mph42%30.07 "HgN/A
10:30 am61 °FPassing clouds.3 mph45%30.07 "HgN/A
10:00 am59 °FSunny.3 mph55%30.04 "Hg10 mi
9:30 am57 °FSunny.5 mph59%30.04 "Hg10 mi
9:00 am54 °FPassing clouds.6 mph67%30.04 "HgN/A
8:30 am48 °FSunny.7 mph82%30.04 "Hg10 mi
8:00 am46 °FSunny.6 mph82%30.01 "Hg10 mi
7:30 am45 °FSunny.5 mph87%30.01 "Hg10 mi
7:00 am43 °FSunny.7 mph87%29.98 "Hg10 mi
6:30 am43 °FClear.6 mph93%29.98 "Hg10 mi
6:00 am43 °FClear.7 mph87%29.95 "Hg10 mi
5:30 am43 °FPassing clouds.6 mph93%29.95 "HgN/A
5:00 am43 °FPassing clouds.7 mph93%29.95 "HgN/A
4:00 am45 °FClear.7 mph93%29.92 "Hg10 mi
3:30 am45 °FClear.6 mph87%29.89 "Hg10 mi
3:00 am45 °FPassing clouds.6 mph93%29.89 "HgN/A
2:30 am45 °FClear.6 mph93%29.86 "Hg10 mi
2:00 am45 °FClear.6 mph93%29.86 "Hg10 mi
1:30 am45 °FOvercast.7 mph93%29.86 "HgN/A
1:00 am45 °FOvercast.7 mph93%29.83 "HgN/A
12:30 am45 °FOvercast.7 mph93%29.83 "HgN/A
12:00 am45 °FOvercast.6 mph93%29.83 "HgN/A
Weather by CustomWeather, © 2024

See weather overview